sensor_id;sensor_type;location;lat;lon;timestamp;temperature;humidity
23783;DHT22;12071;50.850;4.446;2023-03-01T00:02:20;1.70;99.90
23783;DHT22;12071;50.850;4.446;2023-03-01T00:04:46;1.90;99.90
23783;DHT22;12071;50.850;4.446;2023-03-01T00:07:11;1.90;99.90
23783;DHT22;12071;50.850;4.446;2023-03-01T00:09:37;1.90;99.90
23783;DHT22;12071;50.850;4.446;2023-03-01T00:12:03;1.70;99.90
23783;DHT22;12071;50.850;4.446;2023-03-01T00:14:29;1.40;99.90
23783;DHT22;12071;50.850;4.446;2023-03-01T00:16:55;1.40;99.90
23783;DHT22;12071;50.850;4.446;2023-03-01T00:19:20;1.50;99.90
23783;DHT22;12071;50.850;4.446;2023-03-01T00:21:47;1.60;99.90
23783;DHT22;12071;50.850;4.446;2023-03-01T00:24:13;1.60;99.90
23783;DHT22;12071;50.850;4.446;2023-03-01T00:26:39;1.70;99.90
23783;DHT22;12071;50.850;4.446;2023-03-01T00:29:04;1.70;99.90
23783;DHT22;12071;50.850;4.446;2023-03-01T00:31:31;1.70;99.90
23783;DHT22;12071;50.850;4.446;2023-03-01T00:34:01;1.30;99.90
23783;DHT22;12071;50.850;4.446;2023-03-01T00:36:29;1.20;1.00
23783;DHT22;12071;50.850;4.446;2023-03-01T00:38:55;1.40;1.00
23783;DHT22;12071;50.850;4.446;2023-03-01T00:41:21;1.60;1.00
23783;DHT22;12071;50.850;4.446;2023-03-01T00:43:49;1.50;1.00
23783;DHT22;12071;50.850;4.446;2023-03-01T00:46:20;1.50;1.00
23783;DHT22;12071;50.850;4.446;2023-03-01T00:48:46;1.40;1.00
23783;DHT22;12071;50.850;4.446;2023-03-01T00:51:17;1.20;1.00
23783;DHT22;12071;50.850;4.446;2023-03-01T00:53:43;1.30;1.00
23783;DHT22;12071;50.850;4.446;2023-03-01T00:56:11;1.40;1.00
23783;DHT22;12071;50.850;4.446;2023-03-01T00:58:37;1.50;1.00
23783;DHT22;12071;50.850;4.446;2023-03-01T01:01:11;1.60;1.00
23783;DHT22;12071;50.850;4.446;2023-03-01T01:06:17;1.30;1.00
23783;DHT22;12071;50.850;4.446;2023-03-01T01:08:43;1.60;1.00
23783;DHT22;12071;50.850;4.446;2023-03-01T01:11:10;1.50;1.00
23783;DHT22;12071;50.850;4.446;2023-03-01T01:13:36;1.50;1.00
23783;DHT22;12071;50.850;4.446;2023-03-01T01:16:02;1.30;1.00
23783;DHT22;12071;50.850;4.446;2023-03-01T01:18:28;1.30;1.00
23783;DHT22;12071;50.850;4.446;2023-03-01T01:20:53;1.20;1.00
23783;DHT22;12071;50.850;4.446;2023-03-01T01:23:19;1.30;1.00
23783;DHT22;12071;50.850;4.446;2023-03-01T01:25:44;1.30;1.00
23783;DHT22;12071;50.850;4.446;2023-03-01T01:28:10;1.10;1.00
23783;DHT22;12071;50.850;4.446;2023-03-01T01:30:35;1.20;1.00
23783;DHT22;12071;50.850;4.446;2023-03-01T01:33:01;1.20;1.00
23783;DHT22;12071;50.850;4.446;2023-03-01T01:35:27;1.10;1.00
23783;DHT22;12071;50.850;4.446;2023-03-01T01:37:53;1.10;1.00
23783;DHT22;12071;50.850;4.446;2023-03-01T01:40:19;1.00;65.10
23783;DHT22;12071;50.850;4.446;2023-03-01T01:42:44;0.80;50.80
23783;DHT22;12071;50.850;4.446;2023-03-01T01:45:34;0.80;99.90
23783;DHT22;12071;50.850;4.446;2023-03-01T01:48:04;0.70;99.90
23783;DHT22;12071;50.850;4.446;2023-03-01T01:50:33;0.70;99.90
23783;DHT22;12071;50.850;4.446;2023-03-01T01:53:10;0.70;99.90
23783;DHT22;12071;50.850;4.446;2023-03-01T01:55:45;0.50;99.90
23783;DHT22;12071;50.850;4.446;2023-03-01T01:58:14;0.40;99.90
23783;DHT22;12071;50.850;4.446;2023-03-01T02:00:40;0.50;1.00
23783;DHT22;12071;50.850;4.446;2023-03-01T02:03:17;0.70;99.90
23783;DHT22;12071;50.850;4.446;2023-03-01T02:05:50;0.70;99.90
23783;DHT22;12071;50.850;4.446;2023-03-01T02:08:20;0.60;99.90
23783;DHT22;12071;50.850;4.446;2023-03-01T02:10:48;0.40;99.90
23783;DHT22;12071;50.850;4.446;2023-03-01T02:13:15;0.30;1.00
23783;DHT22;12071;50.850;4.446;2023-03-01T02:15:41;0.20;1.00
23783;DHT22;12071;50.850;4.446;2023-03-01T02:18:10;0.20;1.00
23783;DHT22;12071;50.850;4.446;2023-03-01T02:23:28;0.30;45.70
23783;DHT22;12071;50.850;4.446;2023-03-01T02:28:51;0.30;32.70
23783;DHT22;12071;50.850;4.446;2023-03-01T02:31:19;0.50;25.40
23783;DHT22;12071;50.850;4.446;2023-03-01T02:34:05;0.40;1.00
23783;DHT22;12071;50.850;4.446;2023-03-01T02:36:45;0.50;1.00
23783;DHT22;12071;50.850;4.446;2023-03-01T02:39:19;0.60;1.00
23783;DHT22;12071;50.850;4.446;2023-03-01T02:41:50;0.50;1.00
23783;DHT22;12071;50.850;4.446;2023-03-01T02:44:16;0.60;1.00
23783;DHT22;12071;50.850;4.446;2023-03-01T02:46:51;0.60;1.00
23783;DHT22;12071;50.850;4.446;2023-03-01T02:49:21;0.70;1.00
23783;DHT22;12071;50.850;4.446;2023-03-01T02:57:31;0.60;5.00
23783;DHT22;12071;50.850;4.446;2023-03-01T03:00:01;0.50;1.00
23783;DHT22;12071;50.850;4.446;2023-03-01T03:02:32;0.60;16.80
23783;DHT22;12071;50.850;4.446;2023-03-01T03:07:32;0.90;1.00
23783;DHT22;12071;50.850;4.446;2023-03-01T03:09:58;0.90;1.00
23783;DHT22;12071;50.850;4.446;2023-03-01T03:12:24;0.60;1.00
23783;DHT22;12071;50.850;4.446;2023-03-01T03:14:49;0.50;1.00
23783;DHT22;12071;50.850;4.446;2023-03-01T03:17:15;0.50;1.00
23783;DHT22;12071;50.850;4.446;2023-03-01T03:19:40;0.60;1.00
23783;DHT22;12071;50.850;4.446;2023-03-01T03:22:06;0.60;1.00
23783;DHT22;12071;50.850;4.446;2023-03-01T03:24:34;0.70;1.00
23783;DHT22;12071;50.850;4.446;2023-03-01T03:27:04;0.50;1.00
23783;DHT22;12071;50.850;4.446;2023-03-01T03:29:31;0.30;1.00
23783;DHT22;12071;50.850;4.446;2023-03-01T03:31:58;0.20;91.10
23783;DHT22;12071;50.850;4.446;2023-03-01T03:34:23;0.50;99.90
23783;DHT22;12071;50.850;4.446;2023-03-01T03:36:56;0.30;50.00
23783;DHT22;12071;50.850;4.446;2023-03-01T03:39:25;0.20;96.60
23783;DHT22;12071;50.850;4.446;2023-03-01T03:41:52;-0.10;99.90
23783;DHT22;12071;50.850;4.446;2023-03-01T03:44:18;0.00;99.90
23783;DHT22;12071;50.850;4.446;2023-03-01T03:46:43;-0.20;99.90
23783;DHT22;12071;50.850;4.446;2023-03-01T03:49:09;-0.30;1.00
23783;DHT22;12071;50.850;4.446;2023-03-01T03:51:35;0.00;99.90
23783;DHT22;12071;50.850;4.446;2023-03-01T03:54:00;-0.20;93.20
23783;DHT22;12071;50.850;4.446;2023-03-01T03:56:26;-0.30;99.90
23783;DHT22;12071;50.850;4.446;2023-03-01T03:58:52;-0.10;99.90
23783;DHT22;12071;50.850;4.446;2023-03-01T04:01:18;-0.30;99.90
23783;DHT22;12071;50.850;4.446;2023-03-01T04:03:43;-0.30;1.00
23783;DHT22;12071;50.850;4.446;2023-03-01T04:06:14;-0.30;23.90
23783;DHT22;12071;50.850;4.446;2023-03-01T04:08:40;-0.30;61.50
23783;DHT22;12071;50.850;4.446;2023-03-01T04:11:06;-0.30;99.90
23783;DHT22;12071;50.850;4.446;2023-03-01T04:13:52;-0.30;99.90
23783;DHT22;12071;50.850;4.446;2023-03-01T04:16:18;-0.20;99.90
23783;DHT22;12071;50.850;4.446;2023-03-01T04:18:44;-0.10;1.00
23783;DHT22;12071;50.850;4.446;2023-03-01T04:21:10;-0.20;30.40
23783;DHT22;12071;50.850;4.446;2023-03-01T04:23:37;0.00;17.70
23783;DHT22;12071;50.850;4.446;2023-03-01T04:26:03;-0.30;1.00
23783;DHT22;12071;50.850;4.446;2023-03-01T04:28:38;-0.30;99.90
23783;DHT22;12071;50.850;4.446;2023-03-01T04:31:23;-0.40;99.90
23783;DHT22;12071;50.850;4.446;2023-03-01T04:33:51;-0.20;99.90
23783;DHT22;12071;50.850;4.446;2023-03-01T04:36:18;-0.30;99.90
23783;DHT22;12071;50.850;4.446;2023-03-01T04:38:44;-0.30;99.90
23783;DHT22;12071;50.850;4.446;2023-03-01T04:41:13;-0.30;99.90
23783;DHT22;12071;50.850;4.446;2023-03-01T04:43:39;-0.20;1.00
23783;DHT22;12071;50.850;4.446;2023-03-01T04:46:08;-0.30;1.00
23783;DHT22;12071;50.850;4.446;2023-03-01T04:48:36;-0.30;1.00
23783;DHT22;12071;50.850;4.446;2023-03-01T04:51:02;-0.40;57.60
23783;DHT22;12071;50.850;4.446;2023-03-01T04:53:28;-0.40;99.90
23783;DHT22;12071;50.850;4.446;2023-03-01T04:55:55;-0.50;99.90
23783;DHT22;12071;50.850;4.446;2023-03-01T04:58:22;-0.50;99.90
23783;DHT22;12071;50.850;4.446;2023-03-01T05:00:48;-0.30;99.90
23783;DHT22;12071;50.850;4.446;2023-03-01T05:03:14;-0.40;99.90
23783;DHT22;12071;50.850;4.446;2023-03-01T05:05:44;-0.50;99.90
23783;DHT22;12071;50.850;4.446;2023-03-01T05:08:11;-0.50;5.10
23783;DHT22;12071;50.850;4.446;2023-03-01T05:10:52;-0.40;45.60
23783;DHT22;12071;50.850;4.446;2023-03-01T05:13:19;-0.40;1.00
23783;DHT22;12071;50.850;4.446;2023-03-01T05:15:56;-0.40;1.00
23783;DHT22;12071;50.850;4.446;2023-03-01T05:18:23;-0.30;1.00
23783;DHT22;12071;50.850;4.446;2023-03-01T05:20:55;-0.40;23.50
23783;DHT22;12071;50.850;4.446;2023-03-01T05:23:24;-0.40;23.00
23783;DHT22;12071;50.850;4.446;2023-03-01T05:25:49;-0.60;99.90
23783;DHT22;12071;50.850;4.446;2023-03-01T05:28:18;-0.60;99.90
23783;DHT22;12071;50.850;4.446;2023-03-01T05:30:45;-0.60;99.90
23783;DHT22;12071;50.850;4.446;2023-03-01T05:33:11;-0.60;1.00
23783;DHT22;12071;50.850;4.446;2023-03-01T05:35:44;-0.70;1.00
23783;DHT22;12071;50.850;4.446;2023-03-01T05:38:13;-0.60;32.60
23783;DHT22;12071;50.850;4.446;2023-03-01T05:40:40;-0.70;99.90
23783;DHT22;12071;50.850;4.446;2023-03-01T05:43:06;-0.80;99.90
23783;DHT22;12071;50.850;4.446;2023-03-01T05:45:32;-0.80;99.90
23783;DHT22;12071;50.850;4.446;2023-03-01T05:47:58;-0.80;99.90
23783;DHT22;12071;50.850;4.446;2023-03-01T05:50:33;-0.90;99.90
23783;DHT22;12071;50.850;4.446;2023-03-01T05:53:05;-0.80;1.00
23783;DHT22;12071;50.850;4.446;2023-03-01T05:55:32;-0.90;1.00
23783;DHT22;12071;50.850;4.446;2023-03-01T05:57:59;-0.80;1.00
23783;DHT22;12071;50.850;4.446;2023-03-01T06:00:25;-0.80;2.10
23783;DHT22;12071;50.850;4.446;2023-03-01T06:02:53;-0.70;1.00
23783;DHT22;12071;50.850;4.446;2023-03-01T06:05:19;-0.70;1.00
23783;DHT22;12071;50.850;4.446;2023-03-01T06:07:44;-0.80;1.00
23783;DHT22;12071;50.850;4.446;2023-03-01T06:10:11;-0.60;5.50
23783;DHT22;12071;50.850;4.446;2023-03-01T06:12:38;-0.60;1.00
23783;DHT22;12071;50.850;4.446;2023-03-01T06:15:05;-0.70;1.00
23783;DHT22;12071;50.850;4.446;2023-03-01T06:17:33;-0.90;23.70
23783;DHT22;12071;50.850;4.446;2023-03-01T06:20:13;-0.80;99.90
23783;DHT22;12071;50.850;4.446;2023-03-01T06:22:40;-0.80;99.90
23783;DHT22;12071;50.850;4.446;2023-03-01T06:25:07;-0.80;99.90
23783;DHT22;12071;50.850;4.446;2023-03-01T06:27:33;-0.80;99.90
23783;DHT22;12071;50.850;4.446;2023-03-01T06:29:59;-0.70;99.90
23783;DHT22;12071;50.850;4.446;2023-03-01T06:32:24;-0.80;13.40
23783;DHT22;12071;50.850;4.446;2023-03-01T06:34:50;-0.80;3.40
23783;DHT22;12071;50.850;4.446;2023-03-01T06:37:16;-0.80;99.90
23783;DHT22;12071;50.850;4.446;2023-03-01T06:39:41;-0.80;99.90
23783;DHT22;12071;50.850;4.446;2023-03-01T06:42:08;-0.80;99.90
23783;DHT22;12071;50.850;4.446;2023-03-01T06:44:35;-0.80;99.90
23783;DHT22;12071;50.850;4.446;2023-03-01T06:47:01;-0.90;99.90
23783;DHT22;12071;50.850;4.446;2023-03-01T06:49:26;-0.80;99.90
23783;DHT22;12071;50.850;4.446;2023-03-01T06:51:52;-0.90;99.90
23783;DHT22;12071;50.850;4.446;2023-03-01T06:54:17;-0.90;99.90
23783;DHT22;12071;50.850;4.446;2023-03-01T06:56:46;-1.00;99.90
23783;DHT22;12071;50.850;4.446;2023-03-01T06:59:12;-1.10;1.00
23783;DHT22;12071;50.850;4.446;2023-03-01T07:01:37;-1.00;1.00
23783;DHT22;12071;50.850;4.446;2023-03-01T07:04:04;-1.00;99.90
23783;DHT22;12071;50.850;4.446;2023-03-01T07:06:29;-0.90;1.00
23783;DHT22;12071;50.850;4.446;2023-03-01T07:08:55;-0.70;1.00
23783;DHT22;12071;50.850;4.446;2023-03-01T07:11:20;-0.60;99.90
23783;DHT22;12071;50.850;4.446;2023-03-01T07:13:46;-0.80;99.90
23783;DHT22;12071;50.850;4.446;2023-03-01T07:16:12;-0.80;1.00
23783;DHT22;12071;50.850;4.446;2023-03-01T07:18:39;-0.80;1.00
23783;DHT22;12071;50.850;4.446;2023-03-01T07:21:09;-0.70;1.00
23783;DHT22;12071;50.850;4.446;2023-03-01T07:23:36;-0.50;1.00
23783;DHT22;12071;50.850;4.446;2023-03-01T07:26:02;-0.60;1.00
23783;DHT22;12071;50.850;4.446;2023-03-01T07:28:28;-0.60;1.00
23783;DHT22;12071;50.850;4.446;2023-03-01T07:30:54;-0.70;1.00
23783;DHT22;12071;50.850;4.446;2023-03-01T07:33:20;-0.60;1.00
23783;DHT22;12071;50.850;4.446;2023-03-01T07:35:45;-0.60;1.00
23783;DHT22;12071;50.850;4.446;2023-03-01T07:38:11;-0.60;1.00
23783;DHT22;12071;50.850;4.446;2023-03-01T07:40:36;-0.60;1.00
23783;DHT22;12071;50.850;4.446;2023-03-01T07:43:02;-0.50;1.00
23783;DHT22;12071;50.850;4.446;2023-03-01T07:45:29;-0.60;1.00
23783;DHT22;12071;50.850;4.446;2023-03-01T07:47:55;-0.50;1.00
23783;DHT22;12071;50.850;4.446;2023-03-01T07:50:22;-0.30;99.90
23783;DHT22;12071;50.850;4.446;2023-03-01T07:52:49;-0.40;1.00
23783;DHT22;12071;50.850;4.446;2023-03-01T07:55:15;-0.20;1.00
23783;DHT22;12071;50.850;4.446;2023-03-01T07:57:41;-0.10;99.90
23783;DHT22;12071;50.850;4.446;2023-03-01T08:00:09;0.00;99.90
23783;DHT22;12071;50.850;4.446;2023-03-01T08:02:35;0.00;99.90
23783;DHT22;12071;50.850;4.446;2023-03-01T08:05:00;0.00;99.90
23783;DHT22;12071;50.850;4.446;2023-03-01T08:07:26;0.20;99.90
23783;DHT22;12071;50.850;4.446;2023-03-01T08:09:52;0.20;99.90
23783;DHT22;12071;50.850;4.446;2023-03-01T08:12:17;0.20;99.90
23783;DHT22;12071;50.850;4.446;2023-03-01T08:14:43;0.40;99.90
23783;DHT22;12071;50.850;4.446;2023-03-01T08:17:08;0.40;29.80
23783;DHT22;12071;50.850;4.446;2023-03-01T08:19:34;0.60;1.00
23783;DHT22;12071;50.850;4.446;2023-03-01T08:22:01;0.40;99.90
23783;DHT22;12071;50.850;4.446;2023-03-01T08:24:27;0.50;1.00
23783;DHT22;12071;50.850;4.446;2023-03-01T08:26:53;0.50;1.00
23783;DHT22;12071;50.850;4.446;2023-03-01T08:29:19;0.60;99.90
23783;DHT22;12071;50.850;4.446;2023-03-01T08:31:45;0.80;99.90
23783;DHT22;12071;50.850;4.446;2023-03-01T08:34:13;0.90;81.10
23783;DHT22;12071;50.850;4.446;2023-03-01T08:36:41;1.10;9.80
23783;DHT22;12071;50.850;4.446;2023-03-01T08:39:07;1.20;1.00
23783;DHT22;12071;50.850;4.446;2023-03-01T08:41:33;1.30;99.90
23783;DHT22;12071;50.850;4.446;2023-03-01T08:43:59;1.40;99.90
23783;DHT22;12071;50.850;4.446;2023-03-01T08:46:33;1.40;99.90
23783;DHT22;12071;50.850;4.446;2023-03-01T08:49:07;1.50;25.70
23783;DHT22;12071;50.850;4.446;2023-03-01T08:51:33;1.60;1.00
23783;DHT22;12071;50.850;4.446;2023-03-01T08:54:03;1.50;1.00
23783;DHT22;12071;50.850;4.446;2023-03-01T08:56:30;1.50;1.00
23783;DHT22;12071;50.850;4.446;2023-03-01T08:58:55;1.70;99.90
23783;DHT22;12071;50.850;4.446;2023-03-01T09:01:21;1.90;99.90
23783;DHT22;12071;50.850;4.446;2023-03-01T09:03:47;1.80;99.90
23783;DHT22;12071;50.850;4.446;2023-03-01T09:06:13;1.90;99.90
23783;DHT22;12071;50.850;4.446;2023-03-01T09:08:42;2.00;99.90
23783;DHT22;12071;50.850;4.446;2023-03-01T09:11:10;2.10;99.90
23783;DHT22;12071;50.850;4.446;2023-03-01T09:13:36;2.10;99.90
23783;DHT22;12071;50.850;4.446;2023-03-01T09:16:03;2.20;9.60
23783;DHT22;12071;50.850;4.446;2023-03-01T09:18:29;2.10;1.00
23783;DHT22;12071;50.850;4.446;2023-03-01T09:21:14;2.20;1.00
23783;DHT22;12071;50.850;4.446;2023-03-01T09:23:42;2.40;1.00
23783;DHT22;12071;50.850;4.446;2023-03-01T09:26:10;2.50;99.90
23783;DHT22;12071;50.850;4.446;2023-03-01T09:28:36;2.50;99.90
23783;DHT22;12071;50.850;4.446;2023-03-01T09:31:03;2.50;1.00
23783;DHT22;12071;50.850;4.446;2023-03-01T09:33:30;2.50;1.00
23783;DHT22;12071;50.850;4.446;2023-03-01T09:35:58;2.70;1.00
23783;DHT22;12071;50.850;4.446;2023-03-01T09:38:23;2.80;99.90
23783;DHT22;12071;50.850;4.446;2023-03-01T09:40:50;2.90;99.90
23783;DHT22;12071;50.850;4.446;2023-03-01T09:43:39;3.00;99.90
23783;DHT22;12071;50.850;4.446;2023-03-01T09:46:09;3.00;99.90
23783;DHT22;12071;50.850;4.446;2023-03-01T09:48:57;3.30;53.10
23783;DHT22;12071;50.850;4.446;2023-03-01T09:51:31;3.40;1.00
23783;DHT22;12071;50.850;4.446;2023-03-01T09:53:58;3.60;1.00
23783;DHT22;12071;50.850;4.446;2023-03-01T09:56:34;3.90;99.90
23783;DHT22;12071;50.850;4.446;2023-03-01T10:02:13;3.60;99.90
23783;DHT22;12071;50.850;4.446;2023-03-01T10:09:40;4.30;1.00
23783;DHT22;12071;50.850;4.446;2023-03-01T10:12:17;4.20;1.00
23783;DHT22;12071;50.850;4.446;2023-03-01T10:14:50;4.30;1.00
23783;DHT22;12071;50.850;4.446;2023-03-01T10:19:48;4.30;99.90
23783;DHT22;12071;50.850;4.446;2023-03-01T10:22:21;4.30;1.00
23783;DHT22;12071;50.850;4.446;2023-03-01T10:24:48;4.30;99.90
23783;DHT22;12071;50.850;4.446;2023-03-01T10:27:29;4.50;99.90
23783;DHT22;12071;50.850;4.446;2023-03-01T10:30:11;4.60;99.90
23783;DHT22;12071;50.850;4.446;2023-03-01T10:32:39;4.50;99.90
23783;DHT22;12071;50.850;4.446;2023-03-01T10:35:26;4.70;99.90
23783;DHT22;12071;50.850;4.446;2023-03-01T10:38:12;4.90;99.90
23783;DHT22;12071;50.850;4.446;2023-03-01T10:40:58;5.00;99.90
23783;DHT22;12071;50.850;4.446;2023-03-01T10:43:26;5.10;50.70
23783;DHT22;12071;50.850;4.446;2023-03-01T10:45:53;5.20;58.70
23783;DHT22;12071;50.850;4.446;2023-03-01T10:48:26;5.30;1.00
23783;DHT22;12071;50.850;4.446;2023-03-01T10:53:42;5.40;1.00
23783;DHT22;12071;50.850;4.446;2023-03-01T10:56:10;5.60;1.00
23783;DHT22;12071;50.850;4.446;2023-03-01T10:58:38;5.80;1.00
23783;DHT22;12071;50.850;4.446;2023-03-01T11:03:41;5.60;99.90
23783;DHT22;12071;50.850;4.446;2023-03-01T11:08:43;6.00;99.90
23783;DHT22;12071;50.850;4.446;2023-03-01T11:14:06;6.10;99.90
23783;DHT22;12071;50.850;4.446;2023-03-01T11:16:37;6.10;99.90
23783;DHT22;12071;50.850;4.446;2023-03-01T11:21:37;6.00;99.90
23783;DHT22;12071;50.850;4.446;2023-03-01T11:24:09;6.10;99.90
23783;DHT22;12071;50.850;4.446;2023-03-01T11:26:36;6.10;99.90
23783;DHT22;12071;50.850;4.446;2023-03-01T11:29:06;6.30;99.90
23783;DHT22;12071;50.850;4.446;2023-03-01T11:31:35;6.30;99.90
23783;DHT22;12071;50.850;4.446;2023-03-01T11:34:14;6.50;99.90
23783;DHT22;12071;50.850;4.446;2023-03-01T11:36:50;6.60;99.90
23783;DHT22;12071;50.850;4.446;2023-03-01T11:41:59;6.80;99.90
23783;DHT22;12071;50.850;4.446;2023-03-01T11:44:30;6.90;99.90
23783;DHT22;12071;50.850;4.446;2023-03-01T12:00:42;6.60;99.90
23783;DHT22;12071;50.850;4.446;2023-03-01T12:03:30;6.90;99.90
23783;DHT22;12071;50.850;4.446;2023-03-01T12:06:08;6.90;99.90
23783;DHT22;12071;50.850;4.446;2023-03-01T12:08:45;7.10;99.90
23783;DHT22;12071;50.850;4.446;2023-03-01T12:33:54;7.60;99.90
23783;DHT22;12071;50.850;4.446;2023-03-01T12:48:53;8.20;99.90
23783;DHT22;12071;50.850;4.446;2023-03-01T12:51:20;8.20;99.90
23783;DHT22;12071;50.850;4.446;2023-03-01T12:53:49;8.00;99.90
23783;DHT22;12071;50.850;4.446;2023-03-01T12:56:21;7.70;99.90
23783;DHT22;12071;50.850;4.446;2023-03-01T13:02:45;8.30;99.90
23783;DHT22;12071;50.850;4.446;2023-03-01T13:05:00;8.60;99.90
23783;DHT22;12071;50.850;4.446;2023-03-01T13:07:44;8.80;99.90
23783;DHT22;12071;50.850;4.446;2023-03-01T13:10:56;8.70;99.50
23783;DHT22;12071;50.850;4.446;2023-03-01T13:13:24;9.20;99.90
23783;DHT22;12071;50.850;4.446;2023-03-01T13:15:51;8.90;76.90
23783;DHT22;12071;50.850;4.446;2023-03-01T13:20:52;8.90;79.40
23783;DHT22;12071;50.850;4.446;2023-03-01T13:31:04;8.90;75.30
23783;DHT22;12071;50.850;4.446;2023-03-01T13:35:57;9.40;95.40
23783;DHT22;12071;50.850;4.446;2023-03-01T13:38:54;9.30;75.60
23783;DHT22;12071;50.850;4.446;2023-03-01T13:49:28;9.30;35.80
23783;DHT22;12071;50.850;4.446;2023-03-01T13:51:54;8.90;37.60
23783;DHT22;12071;50.850;4.446;2023-03-01T13:54:29;8.70;31.40
23783;DHT22;12071;50.850;4.446;2023-03-01T13:56:58;8.60;39.20
23783;DHT22;12071;50.850;4.446;2023-03-01T13:59:24;8.70;43.80
23783;DHT22;12071;50.850;4.446;2023-03-01T14:01:59;8.80;49.70
23783;DHT22;12071;50.850;4.446;2023-03-01T14:04:30;8.80;56.70
23783;DHT22;12071;50.850;4.446;2023-03-01T14:07:21;9.30;49.20
23783;DHT22;12071;50.850;4.446;2023-03-01T14:09:52;9.30;51.80
23783;DHT22;12071;50.850;4.446;2023-03-01T14:15:34;9.60;51.90
23783;DHT22;12071;50.850;4.446;2023-03-01T14:18:29;10.10;59.70
23783;DHT22;12071;50.850;4.446;2023-03-01T14:20:53;10.70;61.30
23783;DHT22;12071;50.850;4.446;2023-03-01T14:23:21;11.10;40.00
23783;DHT22;12071;50.850;4.446;2023-03-01T14:25:49;11.90;47.30
23783;DHT22;12071;50.850;4.446;2023-03-01T14:28:23;12.80;51.60
23783;DHT22;12071;50.850;4.446;2023-03-01T14:30:56;13.50;44.80
23783;DHT22;12071;50.850;4.446;2023-03-01T14:33:32;14.80;78.90
23783;DHT22;12071;50.850;4.446;2023-03-01T14:36:05;15.00;56.60
23783;DHT22;12071;50.850;4.446;2023-03-01T14:38:38;16.00;58.70
23783;DHT22;12071;50.850;4.446;2023-03-01T14:41:25;16.40;37.10
23783;DHT22;12071;50.850;4.446;2023-03-01T14:44:00;17.10;21.50
23783;DHT22;12071;50.850;4.446;2023-03-01T14:46:33;17.60;67.10
23783;DHT22;12071;50.850;4.446;2023-03-01T14:49:14;17.20;58.60
23783;DHT22;12071;50.850;4.446;2023-03-01T14:51:43;16.60;68.50
23783;DHT22;12071;50.850;4.446;2023-03-01T14:54:41;16.30;70.20
23783;DHT22;12071;50.850;4.446;2023-03-01T14:57:20;15.90;22.30
23783;DHT22;12071;50.850;4.446;2023-03-01T14:59:47;15.90;14.70
23783;DHT22;12071;50.850;4.446;2023-03-01T15:02:18;15.90;5.50
23783;DHT22;12071;50.850;4.446;2023-03-01T15:04:50;15.40;6.20
23783;DHT22;12071;50.850;4.446;2023-03-01T15:07:17;14.80;1.00
23783;DHT22;12071;50.850;4.446;2023-03-01T15:09:44;14.60;1.00
23783;DHT22;12071;50.850;4.446;2023-03-01T15:14:51;15.20;16.10
23783;DHT22;12071;50.850;4.446;2023-03-01T15:17:31;15.70;5.90
23783;DHT22;12071;50.850;4.446;2023-03-01T15:19:57;16.10;8.00
23783;DHT22;12071;50.850;4.446;2023-03-01T15:22:25;17.70;15.70
23783;DHT22;12071;50.850;4.446;2023-03-01T15:24:52;18.30;19.80
23783;DHT22;12071;50.850;4.446;2023-03-01T15:27:24;18.60;12.40
23783;DHT22;12071;50.850;4.446;2023-03-01T15:30:00;18.30;21.60
23783;DHT22;12071;50.850;4.446;2023-03-01T15:32:31;18.30;21.90
23783;DHT22;12071;50.850;4.446;2023-03-01T15:34:59;18.00;16.40
23783;DHT22;12071;50.850;4.446;2023-03-01T15:37:47;18.10;2.70
23783;DHT22;12071;50.850;4.446;2023-03-01T15:40:31;17.80;33.30
23783;DHT22;12071;50.850;4.446;2023-03-01T15:43:01;18.40;33.80
23783;DHT22;12071;50.850;4.446;2023-03-01T15:45:29;18.30;43.20
23783;DHT22;12071;50.850;4.446;2023-03-01T15:47:56;17.20;20.60
23783;DHT22;12071;50.850;4.446;2023-03-01T15:50:32;17.20;28.80
23783;DHT22;12071;50.850;4.446;2023-03-01T15:53:01;17.40;26.30
23783;DHT22;12071;50.850;4.446;2023-03-01T15:55:28;18.00;22.30
23783;DHT22;12071;50.850;4.446;2023-03-01T15:58:05;18.00;24.00
23783;DHT22;12071;50.850;4.446;2023-03-01T16:00:32;18.10;34.60
23783;DHT22;12071;50.850;4.446;2023-03-01T16:02:58;18.70;48.60
23783;DHT22;12071;50.850;4.446;2023-03-01T16:05:32;18.80;25.10
23783;DHT22;12071;50.850;4.446;2023-03-01T16:08:00;18.80;38.20
23783;DHT22;12071;50.850;4.446;2023-03-01T16:10:26;18.60;1.00
23783;DHT22;12071;50.850;4.446;2023-03-01T16:12:52;18.10;1.00
23783;DHT22;12071;50.850;4.446;2023-03-01T16:15:21;16.90;1.00
23783;DHT22;12071;50.850;4.446;2023-03-01T16:17:47;17.10;1.00
23783;DHT22;12071;50.850;4.446;2023-03-01T16:20:13;17.60;1.00
23783;DHT22;12071;50.850;4.446;2023-03-01T16:22:42;17.90;1.00
23783;DHT22;12071;50.850;4.446;2023-03-01T16:25:13;17.60;1.00
23783;DHT22;12071;50.850;4.446;2023-03-01T16:27:42;17.60;1.00
23783;DHT22;12071;50.850;4.446;2023-03-01T16:30:08;17.90;1.00
23783;DHT22;12071;50.850;4.446;2023-03-01T16:32:40;17.40;1.00
23783;DHT22;12071;50.850;4.446;2023-03-01T16:35:07;17.10;1.00
23783;DHT22;12071;50.850;4.446;2023-03-01T16:37:34;17.00;1.00
23783;DHT22;12071;50.850;4.446;2023-03-01T16:39:59;17.00;1.00
23783;DHT22;12071;50.850;4.446;2023-03-01T16:42:25;16.40;1.00
23783;DHT22;12071;50.850;4.446;2023-03-01T16:44:55;16.60;1.00
23783;DHT22;12071;50.850;4.446;2023-03-01T16:47:21;15.80;1.00
23783;DHT22;12071;50.850;4.446;2023-03-01T16:49:47;14.70;1.00
23783;DHT22;12071;50.850;4.446;2023-03-01T16:52:12;13.60;1.00
23783;DHT22;12071;50.850;4.446;2023-03-01T16:54:38;12.40;1.00
23783;DHT22;12071;50.850;4.446;2023-03-01T16:57:04;11.50;1.00
23783;DHT22;12071;50.850;4.446;2023-03-01T16:59:30;11.00;1.00
23783;DHT22;12071;50.850;4.446;2023-03-01T17:01:55;10.40;1.00
23783;DHT22;12071;50.850;4.446;2023-03-01T17:04:21;10.20;1.00
23783;DHT22;12071;50.850;4.446;2023-03-01T17:06:46;10.10;1.00
23783;DHT22;12071;50.850;4.446;2023-03-01T17:09:13;9.70;1.00
23783;DHT22;12071;50.850;4.446;2023-03-01T17:11:39;9.40;1.00
23783;DHT22;12071;50.850;4.446;2023-03-01T17:14:05;9.40;1.00
23783;DHT22;12071;50.850;4.446;2023-03-01T17:16:31;9.10;1.00
23783;DHT22;12071;50.850;4.446;2023-03-01T17:18:57;8.80;1.00
23783;DHT22;12071;50.850;4.446;2023-03-01T17:21:23;8.70;1.00
23783;DHT22;12071;50.850;4.446;2023-03-01T17:23:49;8.60;1.00
23783;DHT22;12071;50.850;4.446;2023-03-01T17:26:16;8.40;1.00
23783;DHT22;12071;50.850;4.446;2023-03-01T17:28:42;8.30;1.00
23783;DHT22;12071;50.850;4.446;2023-03-01T17:31:09;8.10;1.00
23783;DHT22;12071;50.850;4.446;2023-03-01T17:33:35;7.90;1.00
23783;DHT22;12071;50.850;4.446;2023-03-01T17:36:00;7.70;1.00
23783;DHT22;12071;50.850;4.446;2023-03-01T17:38:26;7.50;1.00
23783;DHT22;12071;50.850;4.446;2023-03-01T17:40:52;7.40;1.00
23783;DHT22;12071;50.850;4.446;2023-03-01T17:43:18;7.40;1.00
23783;DHT22;12071;50.850;4.446;2023-03-01T17:45:44;7.50;1.00
23783;DHT22;12071;50.850;4.446;2023-03-01T17:48:13;7.50;1.00
23783;DHT22;12071;50.850;4.446;2023-03-01T17:50:39;7.30;1.00
23783;DHT22;12071;50.850;4.446;2023-03-01T17:53:08;7.10;1.00
23783;DHT22;12071;50.850;4.446;2023-03-01T17:55:38;7.00;1.00
23783;DHT22;12071;50.850;4.446;2023-03-01T17:58:05;6.90;1.00
23783;DHT22;12071;50.850;4.446;2023-03-01T18:00:32;6.70;1.00
23783;DHT22;12071;50.850;4.446;2023-03-01T18:02:58;6.50;1.00